Briefing drone pour Decize

Rechercher une autre localisation

Conditions de vol :


Nous sommes le : Vendredi 09 décembre 2022
Il est 11:58 UTC (12:58 LT)

Lever de soleil : 06:53 UTC (07:53 LT)
Coucher de soleil : 16:23 UTC (17:23 LT)

Météo

L'essentiel des conditions de vol

VIGILANCE MÉTÉO FRANCE - Nièvre (58)
Pas de vigilances particulieres
CARTES DES FRONTS
METAR de LFQG
LFQG 091130Z AUTO 03006KT 9999 BKN011 OVC090 01/M01 Q1003

Date d'émission: 09/12/2022
Heure d'émission: 11:30 UTC
Vent: 030° pour 6 KT (11 km/h)
Visibilité horizontale: > 10 km
Plafond :
- Nuages morcelés à 1100ft (335m)
- Couvert à 9000ft (2743m)
Température: 1 °C
Point de rosée: -1 °C
Humidité: 86%
Pression (QNH): 1003 hPa
Prévision 24h pour Nevers (18 km)
Vent : 331° pour 1 KT (5 km/h)
Temperature Maxi: -4 °C
Temperature Min: -4 °C
Humidité : 98%
Condition : Peu nuageux



Warning: count(): Parameter must be an array or an object that implements Countable in /homepages/6/d509196549/htdocs/droneoxygene/briefing.php on line 743
WEBCAM POUR DECIZE

Réglementation

Voler en sécurité

CARTES AERONAUTIQUE 1/500.000
CARTE AZBA (Reseau basse altitude)
CARTES VAC (LFQG)
SUP AIP




Chargement des AIP...
NOTAM (DECIZE + Terrain à proximité / FIR )




Chargement des NOTAMS...
CONTACT PREFECTURE 58


Avertissement : Les données mises à disposition sont indicatives. Oxygène Drone ne pourra être tenu responsable de dégâts causés aux biens et aux personnes.